Flight Track Log - Related Links

Times and Time Zones

All times are in EDT time to prevent confusion due to time zone crossing. See the SKW6280 flight status page for this flight to view local times or setup timezone preferences in your user account.

Time Position Orientation Groundspeed Altitude Reporting Facility
EDT Latitude Longitude Course Direction KTS MPH feet Rate Location/Type
Fri 12:06:00 PM 39.9380 -104.1782 79° East  Level FlightAware Approximate
Fri 12:07:00 PM 39.9709 -104.0163 72° East  Level FlightAware Approximate
Fri 12:08:00 PM 39.9961 -103.8523 82° East  Level FlightAware Approximate
Fri 12:09:00 PM 40.0263 -103.6903 81° East  Level FlightAware Approximate
Fri 12:10:00 PM 40.0470 -103.5246 81° East  Level FlightAware Approximate
Fri 12:11:00 PM 40.0722 -103.3599 78° East  Level FlightAware Approximate
Fri 12:12:00 PM 40.0981 -103.1952 78° East  Level FlightAware Approximate
Fri 12:13:00 PM 40.1269 -103.0314 77° East  Level FlightAware Approximate
Fri 12:14:00 PM 40.1541 -102.8670 81° East  Level FlightAware Approximate
Fri 12:15:00 PM 40.1796 -102.7023 75° East  Level FlightAware Approximate
Fri 12:16:00 PM 40.2122 -102.5395 75° East  Level FlightAware Approximate
Fri 12:17:00 PM 40.2387 -102.3750 83° East  Level FlightAware Approximate
Fri 12:18:00 PM 40.2570 -102.2084 78° East  Level FlightAware Approximate
Fri 12:19:00 PM 40.2841 -102.0437 81° East  Level FlightAware Approximate
Fri 12:20:00 PM 40.3069 -101.8778 77° East  Level FlightAware Approximate
Fri 12:21:00 PM 40.3359 -101.7135 77° East  Level FlightAware Approximate
Fri 12:22:00 PM 40.3567 -101.5473 84° East  Level FlightAware Approximate
Fri 12:23:00 PM 40.3750 -101.3808 73° East  Level FlightAware Approximate
Fri 12:24:00 PM 40.4123 -101.2192 73° East  Level FlightAware Approximate
Fri 12:25:00 PM 40.4447 -101.0558 76° East  Level FlightAware Approximate
Fri 12:26:00 PM 40.4763 -100.8920 76° East  Level FlightAware Approximate
Fri 12:27:00 PM 40.5077 -100.7280 76° East  Level FlightAware Approximate
Fri 12:28:00 PM 40.5388 -100.5639 76° East  Level FlightAware Approximate
Fri 12:29:00 PM 40.5697 -100.3996 76° East  Level FlightAware Approximate
Fri 12:30:00 PM 40.6004 -100.2352 76° East  Level FlightAware Approximate
Fri 12:31:00 PM 40.6308 -100.0706 76° East  Level FlightAware Approximate
Fri 12:32:00 PM 40.6610 -99.9059 76° East  Level FlightAware Approximate
Fri 12:33:00 PM 40.6910 -99.7410 76° East  Level FlightAware Approximate
Fri 12:34:00 PM 40.7207 -99.5759 77° East  Level FlightAware Approximate
Fri 12:35:00 PM 40.7502 -99.4108 77° East  Level FlightAware Approximate
Fri 12:36:00 PM 40.7795 -99.2454 77° East  Level FlightAware Approximate
Fri 12:37:00 PM 40.8085 -99.0800 77° East  Level FlightAware Approximate
Fri 12:38:00 PM 40.8382 -98.9146 76° East  Level FlightAware Approximate
Fri 12:39:00 PM 40.8681 -98.7493 77° East  Level FlightAware Approximate
Fri 12:40:00 PM 40.8977 -98.5838 77° East  Level FlightAware Approximate
Fri 12:41:00 PM 40.9271 -98.4181 77° East  Level FlightAware Approximate
Fri 12:42:00 PM 40.9562 -98.2523 77° East  Level FlightAware Approximate
Fri 12:43:00 PM 40.9851 -98.0864 77° East  Level FlightAware Approximate
Fri 12:44:00 PM 41.0059 -97.9186 85° East  Level FlightAware Approximate
Fri 12:45:00 PM 41.0179 -97.7489 85° East  Level FlightAware Approximate
Fri 12:46:00 PM 41.0297 -97.5792 85° East  Level FlightAware Approximate
Fri 12:47:00 PM 41.0412 -97.4094 85° East  Level FlightAware Approximate
Fri 12:48:00 PM 41.0524 -97.2395 85° East  Level FlightAware Approximate
Fri 12:49:00 PM 41.0635 -97.0696 85° East  Level FlightAware Approximate
Fri 12:50:00 PM 41.0742 -96.8997 85° East  Level FlightAware Approximate
Fri 12:51:00 PM 41.0848 -96.7297 85° East  Level FlightAware Approximate
Fri 12:52:00 PM 41.0950 -96.5596 85° East  Level FlightAware Approximate
Fri 12:53:00 PM 41.1050 -96.3895 85° East  Level FlightAware Approximate
Fri 12:54:00 PM 41.1148 -96.2193 86° East  Level FlightAware Approximate
Fri 12:55:00 PM 41.1243 -96.0491 86° East  Level FlightAware Approximate
Fri 12:56:00 PM 41.1336 -95.8788 86° East  Level FlightAware Approximate
Fri 12:57:00 PM 41.1426 -95.7085 86° East  Level FlightAware Approximate
Fri 12:58:00 PM 41.1515 -95.5381 86° East  Level FlightAware Approximate
Fri 12:59:00 PM 41.1600 -95.3677 86° East  Level FlightAware Approximate
Fri 01:00:00 PM 41.1683 -95.1973 86° East  Level FlightAware Approximate
Fri 01:01:00 PM 41.1764 -95.0268 86° East  Level FlightAware Approximate
Fri 01:02:00 PM 41.1842 -94.8563 86° East  Level FlightAware Approximate
Fri 01:03:00 PM 41.1917 -94.6857 87° East  Level FlightAware Approximate
Fri 01:04:00 PM 41.1991 -94.5151 87° East  Level FlightAware Approximate
Fri 01:05:00 PM 41.2061 -94.3444 87° East  Level FlightAware Approximate
Fri 01:06:00 PM 41.2129 -94.1738 87° East  Level FlightAware Approximate
Fri 01:07:00 PM 41.2195 -94.0030 87° East  Level FlightAware Approximate
Fri 01:08:00 PM 41.2257 -93.8323 87° East  Level FlightAware Approximate
Fri 01:09:00 PM 41.2318 -93.6615 87° East  Level FlightAware Approximate
Fri 01:10:00 PM 41.2500 -93.5016 90° East  Level FlightAware Approximate
Fri 01:11:00 PM 41.2500 -93.3306 90° East  Level FlightAware Approximate
Fri 01:12:00 PM 41.2500 -93.1595 90° East  Level FlightAware Approximate
Fri 01:13:00 PM 41.2546 -92.9886 87° East  Level FlightAware Approximate
Fri 01:14:00 PM 41.2606 -92.8178 87° East  Level FlightAware Approximate
Fri 01:15:00 PM 41.2662 -92.6469 87° East  Level FlightAware Approximate
Fri 01:16:00 PM 41.2833 -92.4774 90° East  Level FlightAware Approximate
Fri 01:17:00 PM 41.2835 -92.3063 90° East  Level FlightAware Approximate
Fri 01:18:00 PM 41.2833 -92.1352 90° East  Level FlightAware Approximate
Fri 01:19:00 PM 41.2919 -91.9644 86° East  Level FlightAware Approximate
Fri 01:20:00 PM 41.3000 -91.7936 90° East  Level FlightAware Approximate
Fri 01:21:00 PM 41.3001 -91.6225 90° East  Level FlightAware Approximate
Fri 01:22:00 PM 41.3000 -91.4513 90° East  Level FlightAware Approximate
Fri 01:23:00 PM 41.3000 -91.2801 90° East  Level FlightAware Approximate
Fri 01:24:00 PM 41.3070 -91.1093 86° East  Level FlightAware Approximate
Fri 01:25:00 PM 41.3164 -90.9386 86° East  Level FlightAware Approximate
Fri 01:26:00 PM 41.3167 -90.7674 90° East  Level FlightAware Approximate
Fri 01:27:00 PM 41.3390 -90.6110 37° Northeast  Level FlightAware Approximate
Fri 01:28:00 PM 41.4333 -90.5000 48° Northeast  Level FlightAware Approximate
Fri 01:29:00 PM 41.4483 -90.5075 48° Northeast  Level Estimated
Fri 01:30:00 PM 41.4483 -90.5075 48° Northeast  Level Estimated
Fri 01:31:00 PM 41.4483 -90.5075 48° Northeast  Level Estimated
Fri 01:32:00 PM 41.4483 -90.5075 48° Northeast  Level Estimated
Fri 01:33:00 PM 41.4483 -90.5075 48° Northeast  Level Estimated
Fri 01:34:00 PM 41.4483 -90.5075 48° Northeast  Level Estimated
Fri 01:35:00 PM 41.4483 -90.5075 48° Northeast  Level Estimated
Fri 01:36:00 PM 41.4483 -90.5075 48° Northeast  Level Estimated
Fri 01:37:00 PM 41.4483 -90.5075 48° Northeast  Level Estimated
Fri 01:38:00 PM 41.4483 -90.5075 48° Northeast  Level Estimated
Fri 01:39:00 PM 41.4483 -90.5075 48° Northeast  Level Estimated
Fri 01:40:00 PM 41.4483 -90.5075 48° Northeast  Level Estimated
Fri 01:41:00 PM 41.4483 -90.5075 48° Northeast  Level Estimated
Fri 01:42:00 PM 41.4483 -90.5075 48° Northeast  Level Estimated
Fri 01:43:00 PM 41.4483 -90.5075 48° Northeast  Level Estimated
Fri 01:44:00 PM 41.4483 -90.5075 48° Northeast  Level Estimated

Login

Don't have an account? Register now (free) for customized features, flight alerts, and more!